x

New London Ledge Ct - Ledge Light Weather Station (ldlc3) Weather Station

11:45 - Sat 27th Dec 2014 All times are EST. -5 hours from GMT.

  • Wind
    13mph, 14mph gusts
  • Luft Temp 46°f
  • Sea Pressure 1022.3mb
  • New London Ledge Ct - Ledge Light Weather Station
  • New London Ledge Ct - Ledge Light Weather Station

More Historic Weather Station data

Upgrade to MSW Pro to gain access to the past 30 days of data for over 8000 Wavebouys and Weather Stations around the globe.

Join Pro

Comparision Forecast

View Surf forecast
   
Sa 12/27 11:45 13 14 mph 1022.3mb 46f
11:30 13 14 mph 1022.4mb 46f
11:15 10 11 mph 1022.5mb 47f
11:00 8 9 mph 1022.8mb 47f
10:45 7 8 mph 1023mb 47f
10:30 6 7 mph 1023.4mb 47f
10:15 3 7 mph 1023.6mb 43f
10:00 3 5 mph 1023.7mb 42f
9:45 7 8 mph 1023.7mb 43f
9:30 7 8 mph 1023.8mb 42f
9:15 3 6 mph 1023.8mb 42f
9:00 1 2 mph 1023.8mb 43f
8:45 3
mph
1023.6mb 43f
8:30 3 5 mph 1023.4mb 41f
8:15 3
mph
1023.5mb 41f
8:00 3 5 mph 1023.4mb 39f
7:45 5 6 mph 1023.5mb 38f
7:30 5 6 mph 1023.1mb 36f
7:15 6
mph
1022.9mb 36f
7:00 6 7 mph 1022.7mb 36f
6:45 5 6 mph 1022.5mb 36f
6:30 5 6 mph 1022.4mb 36f
6:15 3 5 mph 1022.1mb 36f
6:00 5 6 mph 1021.6mb 36f
5:45 3
mph
1021.5mb 36f
5:30 3 5 mph 1021.3mb 36f
5:15 3
mph
1021.1mb 36f
5:00 2
mph
1021.3mb 37f
4:45 2
mph
1021.2mb 37f
4:30 5
mph
1021.2mb 38f
4:15 3 5 mph 1021.2mb 38f
4:00 3 5 mph 1021.1mb 38f
3:45 3 5 mph 1021.1mb 38f
3:30 2
mph
1020.9mb 38f
3:15 2
mph
1021mb 38f
3:00 1 2 mph 1021.1mb 38f
2:45 2
mph
1021.2mb 38f
2:30 3 5 mph 1021.7mb 39f
2:15 6 7 mph 1021.2mb 39f
2:00 8 10 mph 1021.1mb 40f
1:45 9 11 mph 1020.8mb 42f
1:30 13 14 mph 1020.6mb 42f
1:15 15 17 mph 1020.5mb 42f
1:00 13 15 mph 1020.1mb 43f
12:45 14 17 mph 1020.1mb 43f
12:30 13 15 mph 1019.9mb 43f
12:15 14 16 mph 1020mb 43f
12:00 13 14 mph 1020.7mb 43f
Fr 12/26 6:45 11 15 mph 1021.5mb 45f
6:30 13 15 mph 1021.4mb 45f
6:15 14 16 mph 1021.2mb 45f
6:00 16 20 mph 1021mb 45f
5:45 17 21 mph 1020.7mb 45f
5:30 20 23 mph 1020.7mb 45f
5:15 20 23 mph 1020.3mb 45f
5:00 16 18 mph 1020.3mb 45f
4:45 20 22 mph 1020mb 45f
4:30 21 23 mph 1019.9mb 45f
4:15 21 24 mph 1019.9mb 45f
4:00 21 23 mph 1019.7mb 45f
3:45 20 21 mph 1019.6mb 45f
3:30 18 21 mph 1019.6mb 45f
3:15 17 20 mph 1019.9mb 46f
3:00 13 16 mph 1020.2mb 48f
2:45 11 16 mph 1020.2mb 49f
2:30 11 15 mph 1020.1mb 49f
2:15 8 14 mph 1019.9mb 49f
2:00 10 14 mph 1020mb 50f
1:45 13 15 mph 1020.1mb 49f
1:30 11 16 mph 1020.1mb 49f
1:15 11 14 mph 1020.2mb 50f
1:00 13 16 mph 1020.4mb 49f
12:45 15 20 mph 1020.3mb 49f
12:30 13 16 mph 1020.7mb 49f
12:15 15 17 mph 1020.5mb 49f
12:00 16 20 mph 1020.6mb 48f
11:45 14 18 mph 1020.9mb 48f
11:30 14 17 mph 1021.3mb 47f
11:15 16 21 mph 1021.4mb 46f
11:00 13 16 mph 1021.5mb 46f
10:45 13 21 mph 1021.7mb 46f
10:30 11 16 mph 1021.9mb 46f
10:15 11 15 mph 1022.1mb 45f
10:00 11 17 mph 1022.3mb 44f
9:45 11 14 mph 1022.2mb 44f
9:30 11 14 mph 1022.3mb 44f
9:15 11 14 mph 1022.2mb 43f
9:00 11 14 mph 1021.8mb 43f
8:45 11 14 mph 1021.6mb 42f
8:30 10 13 mph 1021.6mb 42f
8:15 10 13 mph 1021.5mb 42f
8:00 13 14 mph 1021.6mb 41f
7:45 13 15 mph 1021.3mb 41f
7:30 14 16 mph 1021.1mb 41f
7:15 14 16 mph 1020.8mb 41f
7:00 13 15 mph 1020.7mb 41f
6:45 14 16 mph 1020.6mb 41f
6:30 13 14 mph 1020.3mb 41f
6:15 11 13 mph 1019.9mb 41f
6:00 10 13 mph 1019.7mb 41f
5:45 9 11 mph 1019.6mb 41f
5:30 10 11 mph 1019.3mb 41f
5:15 11 13 mph 1019.3mb 41f
5:00 9 11 mph 1019.1mb 41f
4:45 10 13 mph 1018.8mb 41f
4:30 9 11 mph 1019mb 42f
4:15 15 17 mph 1018.8mb 42f
4:00 13 15 mph 1018.7mb 42f
3:45 11 14 mph 1018.5mb 42f
3:30 10 13 mph 1018.4mb 42f
3:15 9 10 mph 1018.3mb 42f
3:00 9 11 mph 1018.3mb 42f
2:45 9 10 mph 1018.5mb 42f
2:30 8 9 mph 1018.1mb 43f
2:15 7 9 mph 1017.9mb 43f
2:00 11 14 mph 1018mb 44f
1:45 13 15 mph 1017.7mb 44f
1:30 13 15 mph 1017.5mb 44f
1:15 14 17 mph 1017.3mb 45f
1:00 15 18 mph 1017mb 45f
12:45 14 17 mph 1016.5mb 45f
12:30 16 17 mph 1016.3mb 45f
12:15 15 18 mph 1016.3mb 46f
12:00 17 20 mph 1016.1mb 46f
Do 12/25 6:45 17 21 mph 1011.5mb 49f
6:30 16 21 mph 1011.4mb 48f
6:15 15 18 mph 1011.2mb 49f
6:00 16 20 mph 1010.8mb 49f
5:45 13 15 mph 1010.7mb 49f
5:30 13 16 mph 1010.5mb 49f
5:15 15 18 mph 1010.2mb 50f
5:00 18 23 mph 1009.7mb 50f
4:45 22 29 mph 1009.3mb 50f
4:30 18 24 mph 1008.9mb 51f
4:15 14 17 mph 1008.7mb 51f
4:00 20 24 mph 1008.3mb 51f
3:45 21 25 mph 1008mb 52f
3:30 28 39 mph 1007.1mb 52f
3:15 23 30 mph 1006.8mb 53f
3:00 22 28 mph 1006.5mb 53f
2:45 28 33 mph 1005.9mb 53f
2:30 25 30 mph 1005.6mb 53f
2:15 29 36 mph 1004.6mb 53f
2:00 23 30 mph 1004.7mb 52f
1:45 28 37 mph 1004.4mb 52f
1:30 21 26 mph 1004.3mb 53f
1:15 28 37 mph 1003.7mb 53f
1:00 25 33 mph 1003.5mb 52f
12:45 21 33 mph 1003.3mb 50f
12:30 23 29 mph 1002.9mb 49f
12:15 22 25 mph 1002.7mb 49f
12:00 20 22 mph 1002.8mb 51f
11:45 20 25 mph 1002.9mb 51f
11:30 21 25 mph 1002.7mb 51f
11:15 18 21 mph 1002.7mb 49f
11:00 20 22 mph 1003mb 48f
10:45 23 25 mph 1002.9mb 48f
10:30 24 26 mph 1002.9mb 48f
10:15 26 30 mph 1002.4mb 49f
10:00 28 32 mph 1001.6mb 49f
9:45 25 30 mph 1001.6mb 49f
9:30 23 26 mph 1001.5mb 49f
9:15 22 26 mph 1001.5mb 49f
9:00 21 23 mph 1001.5mb 50f
8:45 18 20 mph 1000.9mb 49f
8:30 22 24 mph 1000.6mb 50f
8:15 28 32 mph 1000.1mb 52f
8:00 17 20 mph 999.9mb 52f
7:45 13 15 mph 999.9mb 52f
7:30 20 23 mph 1000mb 52f
7:15 16 18 mph 1000.3mb 52f
7:00 11 15 mph 1000.3mb 52f
6:45 11 15 mph 1000mb 52f
6:30 17 21 mph 1000.4mb 52f
6:15 17 22 mph 1000.4mb 52f
6:00 20 23 mph 1000mb 53f
5:45 26 30 mph 999.7mb 54f
5:30 24 29 mph 999.2mb 53f
5:15 23 25 mph 998.6mb 53f
5:00 25 30 mph 999.4mb 53f
4:45 22 24 mph 999.1mb 53f
4:30 20 22 mph 999.1mb 53f
4:15 21 23 mph 999mb 54f
4:00 16 20 mph 999.9mb 53f
3:45 18 21 mph 999.7mb 54f
3:30 17 21 mph 1000.3mb 53f
3:15 20 23 mph 1000.8mb 53f
3:00 21 23 mph 1001mb 54f
2:45 21 25 mph 1001.1mb 55f
2:30 15 16 mph 1001.3mb 52f
2:15 16 17 mph 1001.4mb 53f
2:00 11 13 mph 1001.6mb 53f
1:45 18 21 mph 1001.5mb 54f
1:30 17 18 mph 1001.6mb 54f
1:15 15 16 mph 1002mb 53f
1:00 16 17 mph 1001.5mb 54f
12:45 9 17 mph 1001.4mb 53f
12:30 8 10 mph 1002mb 53f
12:15 20 23 mph 1002.3mb 54f
12:00 22 24 mph 1001.8mb 55f
Mi 12/24 6:45 15 17 mph 1006.3mb 56f
6:30 15 17 mph 1006.7mb 55f
6:15 16 17 mph 1006.8mb 55f
6:00 13 15 mph 1006.8mb 54f
5:45 11 13 mph 1006.8mb 54f
5:30 16 17 mph 1006.9mb 55f
5:15 11 15 mph 1006.9mb 53f
5:00 14 15 mph 1006.6mb 51f
4:45 18 20 mph 1006.6mb 50f
4:30 22 25 mph 1006.6mb 50f
4:15 23 29 mph 1006.6mb 49f
4:00 22 23 mph 1007.4mb 49f
3:45 22 24 mph 1007.7mb 49f
3:30 17 21 mph 1008.5mb 48f
3:15 20 22 mph 1008.5mb 49f
3:00 21 24 mph 1008.8mb 49f
2:45 16 17 mph 1009.2mb 49f
2:30 14 16 mph 1009.4mb 49f
2:15 13 15 mph 1009.8mb 49f
2:00 13 15 mph 1009.9mb 48f
1:45 13 14 mph 1010mb 48f
1:30 15 16 mph 1010.2mb 48f
1:15 14 16 mph 1010.4mb 49f
1:00 10 14 mph 1010.9mb 49f
12:45 10 11 mph 1011.4mb 49f
12:30 13 15 mph 1011.7mb 49f
12:15 13 16 mph 1012.1mb 48f
12:00 10 11 mph 1012.3mb 49f
11:45 13 15 mph 1012.5mb 49f
11:30 11 13 mph 1013mb 49f
11:15 10 11 mph 1013.6mb 49f
11:00 10 14 mph 1014.1mb 49f
10:45 10 14 mph 1014.2mb 49f
10:30 10 14 mph 1014.7mb 49f
10:15 10 13 mph 1015mb 48f
10:00 10 11 mph 1015.1mb 48f
9:45 9 11 mph 1015mb 48f
9:30 9 13 mph 1014.9mb 48f
9:15 10 13 mph 1014.9mb 47f
9:00 10 14 mph 1015.1mb 47f
8:45 11 13 mph 1015.4mb 47f
8:30 11 14 mph 1015.5mb 46f
8:15 10 14 mph 1015.7mb 46f
8:00 8 11 mph 1015.9mb 46f
7:45 8 11 mph 1016.1mb 47f
7:30 7 9 mph 1016.3mb 47f
7:15 8 11 mph 1016.5mb 47f
7:00 8 11 mph 1016.4mb 46f
6:45 9 11 mph 1016.5mb 46f
6:30 8 11 mph 1016.8mb 46f
6:15 9 11 mph 1016.8mb 46f
6:00 9 11 mph 1016.5mb 46f
5:45 11 14 mph 1016.3mb 46f
5:30 10 14 mph 1016.5mb 46f
5:15 11 14 mph 1016.9mb 46f
5:00 9 13 mph 1016.8mb 47f
4:45 11 16 mph 1016.1mb 47f
4:30 11 14 mph 1016.2mb 47f
4:15 8 13 mph 1016.8mb 48f
4:00 9 15 mph 1016.4mb 48f
3:45 10 15 mph 1016.6mb 48f
3:30 10 14 mph 1016.8mb 48f
3:15 8 13 mph 1017mb 49f
3:00 8 10 mph 1017.3mb 49f
2:45 6 11 mph 1017.5mb 49f
2:30 9 13 mph 1017.5mb 49f
2:15 9 13 mph 1017.4mb 48f
2:00 10 16 mph 1016.9mb 48f
1:45 10 14 mph 1017.3mb 48f
1:30 7 10 mph 1017.8mb 48f
1:15 7 10 mph 1017.7mb 48f
1:00 7 11 mph 1017.4mb 48f
12:45 8 11 mph 1017.3mb 48f
12:30 10 14 mph 1017.5mb 48f
12:15 10 15 mph 1017.8mb 49f
12:00 10 17 mph 1017.7mb 49f
Di 12/23 6:45 14 16 mph 1018.3mb 48f
6:30 13 16 mph 1018.5mb 48f
6:15 11 16 mph 1018.6mb 48f
6:00 14 17 mph 1018.4mb 48f
5:45 13 17 mph 1018mb 47f
5:30 13 16 mph 1018.1mb 48f